sensor_id;sensor_type;location;lat;lon;timestamp;P1;durP1;ratioP1;P2;durP2;ratioP2
75512;SDS011;64090;49.770;18.760;2023-07-09T00:02:50;7.30;;;4.30;;
75512;SDS011;64090;49.770;18.760;2023-07-09T00:05:53;6.60;;;4.20;;
75512;SDS011;64090;49.770;18.760;2023-07-09T00:08:56;5.70;;;3.70;;
75512;SDS011;64090;49.770;18.760;2023-07-09T00:11:59;6.00;;;3.80;;
75512;SDS011;64090;49.770;18.760;2023-07-09T00:15:02;6.50;;;4.70;;
75512;SDS011;64090;49.770;18.760;2023-07-09T00:18:07;5.40;;;4.40;;
75512;SDS011;64090;49.770;18.760;2023-07-09T00:21:11;5.40;;;4.10;;
75512;SDS011;64090;49.770;18.760;2023-07-09T00:24:14;5.50;;;3.60;;
75512;SDS011;64090;49.770;18.760;2023-07-09T00:27:18;4.80;;;3.20;;
75512;SDS011;64090;49.770;18.760;2023-07-09T00:30:23;4.20;;;3.00;;
75512;SDS011;64090;49.770;18.760;2023-07-09T00:33:26;4.20;;;3.40;;
75512;SDS011;64090;49.770;18.760;2023-07-09T00:36:34;5.30;;;4.00;;
75512;SDS011;64090;49.770;18.760;2023-07-09T00:39:37;5.80;;;3.50;;
75512;SDS011;64090;49.770;18.760;2023-07-09T00:42:42;4.50;;;3.70;;
75512;SDS011;64090;49.770;18.760;2023-07-09T00:46:07;5.00;;;3.80;;
75512;SDS011;64090;49.770;18.760;2023-07-09T00:49:39;5.00;;;2.60;;
75512;SDS011;64090;49.770;18.760;2023-07-09T00:52:50;5.30;;;4.00;;
75512;SDS011;64090;49.770;18.760;2023-07-09T00:55:59;4.20;;;3.20;;
75512;SDS011;64090;49.770;18.760;2023-07-09T00:59:11;4.70;;;3.70;;
75512;SDS011;64090;49.770;18.760;2023-07-09T01:02:17;4.10;;;2.90;;
75512;SDS011;64090;49.770;18.760;2023-07-09T01:05:25;3.40;;;2.80;;
75512;SDS011;64090;49.770;18.760;2023-07-09T01:08:30;4.70;;;3.20;;
75512;SDS011;64090;49.770;18.760;2023-07-09T01:11:35;5.00;;;3.50;;
75512;SDS011;64090;49.770;18.760;2023-07-09T01:14:40;4.90;;;3.50;;
75512;SDS011;64090;49.770;18.760;2023-07-09T01:17:43;5.20;;;3.50;;
75512;SDS011;64090;49.770;18.760;2023-07-09T01:20:47;5.40;;;3.70;;
75512;SDS011;64090;49.770;18.760;2023-07-09T01:23:50;4.00;;;3.10;;
75512;SDS011;64090;49.770;18.760;2023-07-09T01:26:55;3.60;;;3.00;;
75512;SDS011;64090;49.770;18.760;2023-07-09T01:29:59;4.40;;;3.20;;
75512;SDS011;64090;49.770;18.760;2023-07-09T01:33:04;4.40;;;3.50;;
75512;SDS011;64090;49.770;18.760;2023-07-09T01:36:09;5.70;;;4.20;;
75512;SDS011;64090;49.770;18.760;2023-07-09T01:39:12;5.20;;;4.10;;
75512;SDS011;64090;49.770;18.760;2023-07-09T01:42:16;6.30;;;4.60;;
75512;SDS011;64090;49.770;18.760;2023-07-09T01:45:20;5.10;;;4.00;;
75512;SDS011;64090;49.770;18.760;2023-07-09T01:48:25;5.20;;;4.40;;
75512;SDS011;64090;49.770;18.760;2023-07-09T01:51:28;5.00;;;4.30;;
75512;SDS011;64090;49.770;18.760;2023-07-09T01:54:31;7.20;;;4.90;;
75512;SDS011;64090;49.770;18.760;2023-07-09T01:57:40;6.50;;;4.60;;
75512;SDS011;64090;49.770;18.760;2023-07-09T02:00:43;6.10;;;4.30;;
75512;SDS011;64090;49.770;18.760;2023-07-09T02:03:47;5.60;;;4.30;;
75512;SDS011;64090;49.770;18.760;2023-07-09T02:06:50;6.20;;;4.80;;
75512;SDS011;64090;49.770;18.760;2023-07-09T02:09:53;5.10;;;4.00;;
75512;SDS011;64090;49.770;18.760;2023-07-09T02:12:56;5.30;;;4.00;;
75512;SDS011;64090;49.770;18.760;2023-07-09T02:15:59;5.70;;;4.30;;
75512;SDS011;64090;49.770;18.760;2023-07-09T02:19:02;6.50;;;4.80;;
75512;SDS011;64090;49.770;18.760;2023-07-09T02:22:06;7.00;;;5.30;;
75512;SDS011;64090;49.770;18.760;2023-07-09T02:25:10;6.60;;;4.80;;
75512;SDS011;64090;49.770;18.760;2023-07-09T02:28:13;6.00;;;5.20;;
75512;SDS011;64090;49.770;18.760;2023-07-09T02:31:17;5.80;;;5.20;;
75512;SDS011;64090;49.770;18.760;2023-07-09T02:34:20;5.50;;;3.90;;
75512;SDS011;64090;49.770;18.760;2023-07-09T02:37:28;6.30;;;3.90;;
75512;SDS011;64090;49.770;18.760;2023-07-09T02:40:31;6.40;;;4.50;;
75512;SDS011;64090;49.770;18.760;2023-07-09T02:43:33;5.30;;;4.40;;
75512;SDS011;64090;49.770;18.760;2023-07-09T02:46:37;5.00;;;3.60;;
75512;SDS011;64090;49.770;18.760;2023-07-09T02:49:40;4.40;;;3.60;;
75512;SDS011;64090;49.770;18.760;2023-07-09T02:52:44;4.40;;;3.20;;
75512;SDS011;64090;49.770;18.760;2023-07-09T02:55:47;4.30;;;3.10;;
75512;SDS011;64090;49.770;18.760;2023-07-09T02:58:50;4.10;;;3.60;;
75512;SDS011;64090;49.770;18.760;2023-07-09T03:01:54;4.00;;;2.80;;
75512;SDS011;64090;49.770;18.760;2023-07-09T03:04:57;3.80;;;2.70;;
75512;SDS011;64090;49.770;18.760;2023-07-09T03:08:00;3.90;;;3.30;;
75512;SDS011;64090;49.770;18.760;2023-07-09T03:11:09;3.30;;;2.90;;
75512;SDS011;64090;49.770;18.760;2023-07-09T03:14:17;3.90;;;3.10;;
75512;SDS011;64090;49.770;18.760;2023-07-09T03:17:20;5.80;;;2.90;;
75512;SDS011;64090;49.770;18.760;2023-07-09T03:20:23;3.90;;;3.00;;
75512;SDS011;64090;49.770;18.760;2023-07-09T03:23:27;4.40;;;3.40;;
75512;SDS011;64090;49.770;18.760;2023-07-09T03:26:31;4.10;;;3.10;;
75512;SDS011;64090;49.770;18.760;2023-07-09T03:29:34;4.70;;;3.00;;
75512;SDS011;64090;49.770;18.760;2023-07-09T03:32:37;3.50;;;2.70;;
75512;SDS011;64090;49.770;18.760;2023-07-09T03:35:40;3.30;;;2.60;;
75512;SDS011;64090;49.770;18.760;2023-07-09T03:38:42;3.80;;;2.90;;
75512;SDS011;64090;49.770;18.760;2023-07-09T03:41:45;4.20;;;3.00;;
75512;SDS011;64090;49.770;18.760;2023-07-09T03:44:48;3.00;;;2.50;;
75512;SDS011;64090;49.770;18.760;2023-07-09T03:47:51;3.30;;;2.80;;
75512;SDS011;64090;49.770;18.760;2023-07-09T03:50:55;4.40;;;2.70;;
75512;SDS011;64090;49.770;18.760;2023-07-09T03:53:59;4.00;;;2.80;;
75512;SDS011;64090;49.770;18.760;2023-07-09T03:57:02;3.90;;;2.90;;
75512;SDS011;64090;49.770;18.760;2023-07-09T04:00:06;3.10;;;2.40;;
75512;SDS011;64090;49.770;18.760;2023-07-09T04:03:13;3.20;;;2.30;;
75512;SDS011;64090;49.770;18.760;2023-07-09T04:06:16;2.90;;;2.30;;
75512;SDS011;64090;49.770;18.760;2023-07-09T04:09:20;3.90;;;2.60;;
75512;SDS011;64090;49.770;18.760;2023-07-09T04:12:23;3.70;;;2.20;;
75512;SDS011;64090;49.770;18.760;2023-07-09T04:15:26;3.90;;;2.50;;
75512;SDS011;64090;49.770;18.760;2023-07-09T04:18:29;3.80;;;2.70;;
75512;SDS011;64090;49.770;18.760;2023-07-09T04:21:32;3.50;;;2.30;;
75512;SDS011;64090;49.770;18.760;2023-07-09T04:24:35;3.60;;;2.30;;
75512;SDS011;64090;49.770;18.760;2023-07-09T04:27:38;3.60;;;2.50;;
75512;SDS011;64090;49.770;18.760;2023-07-09T04:30:49;3.50;;;2.20;;
75512;SDS011;64090;49.770;18.760;2023-07-09T04:33:53;3.60;;;2.50;;
75512;SDS011;64090;49.770;18.760;2023-07-09T04:36:55;3.00;;;2.20;;
75512;SDS011;64090;49.770;18.760;2023-07-09T04:39:59;3.90;;;2.50;;
75512;SDS011;64090;49.770;18.760;2023-07-09T04:43:02;2.80;;;2.30;;
75512;SDS011;64090;49.770;18.760;2023-07-09T04:46:05;3.70;;;2.50;;
75512;SDS011;64090;49.770;18.760;2023-07-09T04:49:08;4.00;;;2.40;;
75512;SDS011;64090;49.770;18.760;2023-07-09T04:52:14;3.00;;;2.50;;
75512;SDS011;64090;49.770;18.760;2023-07-09T04:55:18;3.90;;;2.80;;
75512;SDS011;64090;49.770;18.760;2023-07-09T04:58:21;3.90;;;2.40;;
75512;SDS011;64090;49.770;18.760;2023-07-09T05:01:24;3.50;;;2.70;;
75512;SDS011;64090;49.770;18.760;2023-07-09T05:04:28;5.30;;;2.80;;
75512;SDS011;64090;49.770;18.760;2023-07-09T05:07:30;3.30;;;2.30;;
75512;SDS011;64090;49.770;18.760;2023-07-09T05:10:40;3.90;;;2.80;;
75512;SDS011;64090;49.770;18.760;2023-07-09T05:13:44;3.80;;;3.00;;
75512;SDS011;64090;49.770;18.760;2023-07-09T05:16:47;4.00;;;3.10;;
75512;SDS011;64090;49.770;18.760;2023-07-09T05:19:51;4.20;;;3.30;;
75512;SDS011;64090;49.770;18.760;2023-07-09T05:22:54;3.60;;;2.70;;
75512;SDS011;64090;49.770;18.760;2023-07-09T05:25:57;3.70;;;2.70;;
75512;SDS011;64090;49.770;18.760;2023-07-09T05:29:02;3.10;;;2.60;;
75512;SDS011;64090;49.770;18.760;2023-07-09T05:32:07;4.10;;;3.10;;
75512;SDS011;64090;49.770;18.760;2023-07-09T05:35:10;4.80;;;2.90;;
75512;SDS011;64090;49.770;18.760;2023-07-09T05:38:13;4.00;;;2.80;;
75512;SDS011;64090;49.770;18.760;2023-07-09T05:41:17;4.00;;;2.80;;
75512;SDS011;64090;49.770;18.760;2023-07-09T05:44:20;4.20;;;2.90;;
75512;SDS011;64090;49.770;18.760;2023-07-09T05:47:23;4.20;;;2.60;;
75512;SDS011;64090;49.770;18.760;2023-07-09T05:50:27;4.40;;;3.00;;
75512;SDS011;64090;49.770;18.760;2023-07-09T05:53:31;3.50;;;2.90;;
75512;SDS011;64090;49.770;18.760;2023-07-09T05:56:37;3.20;;;2.50;;
75512;SDS011;64090;49.770;18.760;2023-07-09T05:59:40;3.60;;;2.90;;
75512;SDS011;64090;49.770;18.760;2023-07-09T06:02:43;3.20;;;2.80;;
75512;SDS011;64090;49.770;18.760;2023-07-09T06:05:46;4.50;;;2.90;;
75512;SDS011;64090;49.770;18.760;2023-07-09T06:08:50;3.40;;;2.90;;
75512;SDS011;64090;49.770;18.760;2023-07-09T06:11:54;4.70;;;3.00;;
75512;SDS011;64090;49.770;18.760;2023-07-09T06:14:57;4.80;;;3.20;;
75512;SDS011;64090;49.770;18.760;2023-07-09T06:18:00;5.30;;;4.00;;
75512;SDS011;64090;49.770;18.760;2023-07-09T06:21:03;4.40;;;3.70;;
75512;SDS011;64090;49.770;18.760;2023-07-09T06:24:06;3.90;;;2.50;;
75512;SDS011;64090;49.770;18.760;2023-07-09T06:27:10;4.50;;;3.30;;
75512;SDS011;64090;49.770;18.760;2023-07-09T06:30:13;3.60;;;2.90;;
75512;SDS011;64090;49.770;18.760;2023-07-09T06:33:17;4.00;;;3.40;;
75512;SDS011;64090;49.770;18.760;2023-07-09T06:36:21;3.50;;;2.90;;
75512;SDS011;64090;49.770;18.760;2023-07-09T06:39:24;4.00;;;3.00;;
75512;SDS011;64090;49.770;18.760;2023-07-09T06:42:27;4.10;;;2.80;;
75512;SDS011;64090;49.770;18.760;2023-07-09T06:45:30;3.10;;;2.40;;
75512;SDS011;64090;49.770;18.760;2023-07-09T06:48:34;4.20;;;2.90;;
75512;SDS011;64090;49.770;18.760;2023-07-09T06:51:37;4.40;;;2.80;;
75512;SDS011;64090;49.770;18.760;2023-07-09T06:54:40;3.20;;;2.30;;
75512;SDS011;64090;49.770;18.760;2023-07-09T06:57:43;5.30;;;2.60;;
75512;SDS011;64090;49.770;18.760;2023-07-09T07:00:47;3.90;;;2.30;;
75512;SDS011;64090;49.770;18.760;2023-07-09T07:03:51;4.10;;;2.70;;
75512;SDS011;64090;49.770;18.760;2023-07-09T07:06:54;6.40;;;3.00;;
75512;SDS011;64090;49.770;18.760;2023-07-09T07:09:59;6.60;;;2.90;;
75512;SDS011;64090;49.770;18.760;2023-07-09T07:13:02;4.70;;;2.50;;
75512;SDS011;64090;49.770;18.760;2023-07-09T07:16:06;4.20;;;2.40;;
75512;SDS011;64090;49.770;18.760;2023-07-09T07:19:11;3.80;;;2.60;;
75512;SDS011;64090;49.770;18.760;2023-07-09T07:22:14;3.90;;;3.10;;
75512;SDS011;64090;49.770;18.760;2023-07-09T07:25:17;3.70;;;2.50;;
75512;SDS011;64090;49.770;18.760;2023-07-09T07:28:20;4.10;;;2.40;;
75512;SDS011;64090;49.770;18.760;2023-07-09T07:31:23;3.80;;;2.60;;
75512;SDS011;64090;49.770;18.760;2023-07-09T07:34:26;3.20;;;2.20;;
75512;SDS011;64090;49.770;18.760;2023-07-09T07:37:29;3.40;;;2.40;;
75512;SDS011;64090;49.770;18.760;2023-07-09T07:40:32;3.30;;;2.50;;
75512;SDS011;64090;49.770;18.760;2023-07-09T07:43:35;4.80;;;2.50;;
75512;SDS011;64090;49.770;18.760;2023-07-09T07:46:38;9.50;;;3.00;;
75512;SDS011;64090;49.770;18.760;2023-07-09T07:49:41;3.40;;;2.70;;
75512;SDS011;64090;49.770;18.760;2023-07-09T07:52:44;4.60;;;2.40;;
75512;SDS011;64090;49.770;18.760;2023-07-09T07:55:47;3.80;;;2.70;;
75512;SDS011;64090;49.770;18.760;2023-07-09T07:58:50;7.70;;;2.90;;
75512;SDS011;64090;49.770;18.760;2023-07-09T08:01:53;3.40;;;2.20;;
75512;SDS011;64090;49.770;18.760;2023-07-09T08:04:56;3.20;;;2.20;;
75512;SDS011;64090;49.770;18.760;2023-07-09T08:07:59;3.90;;;3.00;;
75512;SDS011;64090;49.770;18.760;2023-07-09T08:11:03;3.90;;;2.40;;
75512;SDS011;64090;49.770;18.760;2023-07-09T08:14:10;7.30;;;6.60;;
75512;SDS011;64090;49.770;18.760;2023-07-09T08:17:14;4.80;;;2.90;;
75512;SDS011;64090;49.770;18.760;2023-07-09T08:20:17;3.90;;;3.10;;
75512;SDS011;64090;49.770;18.760;2023-07-09T08:23:20;4.30;;;2.60;;
75512;SDS011;64090;49.770;18.760;2023-07-09T08:26:23;4.30;;;2.30;;
75512;SDS011;64090;49.770;18.760;2023-07-09T08:29:26;3.30;;;3.00;;
75512;SDS011;64090;49.770;18.760;2023-07-09T08:32:30;3.90;;;2.60;;
75512;SDS011;64090;49.770;18.760;2023-07-09T08:35:33;3.60;;;2.40;;
75512;SDS011;64090;49.770;18.760;2023-07-09T08:38:38;3.40;;;2.50;;
75512;SDS011;64090;49.770;18.760;2023-07-09T08:41:47;3.80;;;3.00;;
75512;SDS011;64090;49.770;18.760;2023-07-09T08:45:03;3.80;;;2.80;;
75512;SDS011;64090;49.770;18.760;2023-07-09T08:51:33;4.10;;;2.70;;
75512;SDS011;64090;49.770;18.760;2023-07-09T08:54:41;3.40;;;3.00;;
75512;SDS011;64090;49.770;18.760;2023-07-09T08:57:49;3.80;;;2.40;;
75512;SDS011;64090;49.770;18.760;2023-07-09T09:00:58;3.20;;;2.30;;
75512;SDS011;64090;49.770;18.760;2023-07-09T09:04:22;3.50;;;2.60;;
75512;SDS011;64090;49.770;18.760;2023-07-09T09:07:40;4.40;;;3.00;;
75512;SDS011;64090;49.770;18.760;2023-07-09T09:10:48;5.10;;;2.80;;
75512;SDS011;64090;49.770;18.760;2023-07-09T09:13:58;3.50;;;2.80;;
75512;SDS011;64090;49.770;18.760;2023-07-09T09:17:16;4.30;;;2.70;;
75512;SDS011;64090;49.770;18.760;2023-07-09T09:20:21;3.70;;;2.90;;
75512;SDS011;64090;49.770;18.760;2023-07-09T09:23:25;5.50;;;3.40;;
75512;SDS011;64090;49.770;18.760;2023-07-09T09:26:38;5.90;;;3.20;;
75512;SDS011;64090;49.770;18.760;2023-07-09T09:29:45;3.30;;;2.70;;
75512;SDS011;64090;49.770;18.760;2023-07-09T09:32:50;4.90;;;3.10;;
75512;SDS011;64090;49.770;18.760;2023-07-09T09:36:03;3.40;;;2.90;;
75512;SDS011;64090;49.770;18.760;2023-07-09T09:39:08;4.00;;;2.70;;
75512;SDS011;64090;49.770;18.760;2023-07-09T09:42:12;3.10;;;2.50;;
75512;SDS011;64090;49.770;18.760;2023-07-09T09:45:17;3.70;;;2.70;;
75512;SDS011;64090;49.770;18.760;2023-07-09T09:48:29;4.10;;;2.80;;
75512;SDS011;64090;49.770;18.760;2023-07-09T09:51:33;3.50;;;2.60;;
75512;SDS011;64090;49.770;18.760;2023-07-09T09:54:39;2.80;;;2.50;;
75512;SDS011;64090;49.770;18.760;2023-07-09T09:57:48;3.10;;;2.40;;
75512;SDS011;64090;49.770;18.760;2023-07-09T10:00:53;3.70;;;2.90;;
75512;SDS011;64090;49.770;18.760;2023-07-09T10:04:01;5.90;;;3.00;;
75512;SDS011;64090;49.770;18.760;2023-07-09T10:07:07;3.90;;;3.00;;
75512;SDS011;64090;49.770;18.760;2023-07-09T10:10:15;4.70;;;3.40;;
75512;SDS011;64090;49.770;18.760;2023-07-09T10:13:26;4.10;;;3.10;;
75512;SDS011;64090;49.770;18.760;2023-07-09T10:16:37;4.50;;;3.10;;
75512;SDS011;64090;49.770;18.760;2023-07-09T10:19:57;3.90;;;3.10;;
75512;SDS011;64090;49.770;18.760;2023-07-09T10:33:30;3.90;;;3.00;;
75512;SDS011;64090;49.770;18.760;2023-07-09T10:37:13;4.30;;;3.00;;
75512;SDS011;64090;49.770;18.760;2023-07-09T10:40:31;4.20;;;3.50;;
75512;SDS011;64090;49.770;18.760;2023-07-09T10:43:44;3.70;;;2.50;;
75512;SDS011;64090;49.770;18.760;2023-07-09T10:46:54;3.50;;;3.00;;
75512;SDS011;64090;49.770;18.760;2023-07-09T10:50:02;4.00;;;3.00;;
75512;SDS011;64090;49.770;18.760;2023-07-09T10:53:23;4.20;;;2.90;;
75512;SDS011;64090;49.770;18.760;2023-07-09T10:56:29;4.70;;;2.80;;
75512;SDS011;64090;49.770;18.760;2023-07-09T10:59:39;3.60;;;2.70;;
75512;SDS011;64090;49.770;18.760;2023-07-09T11:05:47;3.90;;;3.20;;
75512;SDS011;64090;49.770;18.760;2023-07-09T11:08:52;3.10;;;2.80;;
75512;SDS011;64090;49.770;18.760;2023-07-09T11:11:59;5.30;;;3.40;;
75512;SDS011;64090;49.770;18.760;2023-07-09T11:15:15;3.20;;;2.70;;
75512;SDS011;64090;49.770;18.760;2023-07-09T11:18:25;4.00;;;3.10;;
75512;SDS011;64090;49.770;18.760;2023-07-09T11:21:32;5.00;;;2.50;;
75512;SDS011;64090;49.770;18.760;2023-07-09T11:24:46;3.70;;;3.00;;
75512;SDS011;64090;49.770;18.760;2023-07-09T11:27:51;3.70;;;3.10;;
75512;SDS011;64090;49.770;18.760;2023-07-09T11:31:04;4.00;;;3.10;;
75512;SDS011;64090;49.770;18.760;2023-07-09T11:34:10;3.50;;;2.90;;
75512;SDS011;64090;49.770;18.760;2023-07-09T11:37:22;4.30;;;3.10;;
75512;SDS011;64090;49.770;18.760;2023-07-09T11:40:28;6.10;;;4.70;;
75512;SDS011;64090;49.770;18.760;2023-07-09T11:43:34;5.00;;;2.80;;
75512;SDS011;64090;49.770;18.760;2023-07-09T11:46:50;4.50;;;3.00;;
75512;SDS011;64090;49.770;18.760;2023-07-09T11:53:11;3.60;;;3.20;;
75512;SDS011;64090;49.770;18.760;2023-07-09T11:56:54;4.60;;;3.20;;
75512;SDS011;64090;49.770;18.760;2023-07-09T11:59:59;3.50;;;2.60;;
75512;SDS011;64090;49.770;18.760;2023-07-09T12:03:03;4.20;;;3.10;;
75512;SDS011;64090;49.770;18.760;2023-07-09T12:06:18;4.50;;;3.20;;
75512;SDS011;64090;49.770;18.760;2023-07-09T12:09:30;5.00;;;3.80;;
75512;SDS011;64090;49.770;18.760;2023-07-09T12:12:35;4.20;;;3.30;;
75512;SDS011;64090;49.770;18.760;2023-07-09T12:15:38;4.30;;;3.30;;
75512;SDS011;64090;49.770;18.760;2023-07-09T12:18:42;3.90;;;3.30;;
75512;SDS011;64090;49.770;18.760;2023-07-09T12:21:46;4.50;;;3.00;;
75512;SDS011;64090;49.770;18.760;2023-07-09T12:24:52;5.10;;;3.70;;
75512;SDS011;64090;49.770;18.760;2023-07-09T12:27:57;5.50;;;4.00;;
75512;SDS011;64090;49.770;18.760;2023-07-09T12:31:01;4.30;;;3.80;;
75512;SDS011;64090;49.770;18.760;2023-07-09T12:34:10;3.70;;;3.30;;
75512;SDS011;64090;49.770;18.760;2023-07-09T12:37:16;3.70;;;3.30;;
75512;SDS011;64090;49.770;18.760;2023-07-09T12:40:21;3.60;;;3.20;;
75512;SDS011;64090;49.770;18.760;2023-07-09T12:43:26;4.30;;;3.30;;
75512;SDS011;64090;49.770;18.760;2023-07-09T12:46:31;4.10;;;2.90;;
75512;SDS011;64090;49.770;18.760;2023-07-09T12:49:39;4.00;;;3.10;;
75512;SDS011;64090;49.770;18.760;2023-07-09T12:52:45;4.20;;;3.40;;
75512;SDS011;64090;49.770;18.760;2023-07-09T12:55:50;4.50;;;3.70;;
75512;SDS011;64090;49.770;18.760;2023-07-09T12:58:56;4.20;;;2.90;;
75512;SDS011;64090;49.770;18.760;2023-07-09T13:05:25;4.70;;;3.70;;
75512;SDS011;64090;49.770;18.760;2023-07-09T13:08:30;4.10;;;3.70;;
75512;SDS011;64090;49.770;18.760;2023-07-09T13:11:35;6.50;;;3.50;;
75512;SDS011;64090;49.770;18.760;2023-07-09T13:14:38;4.70;;;3.20;;
75512;SDS011;64090;49.770;18.760;2023-07-09T13:17:42;4.60;;;3.30;;
75512;SDS011;64090;49.770;18.760;2023-07-09T13:20:45;4.70;;;3.20;;
75512;SDS011;64090;49.770;18.760;2023-07-09T13:23:52;4.70;;;3.40;;
75512;SDS011;64090;49.770;18.760;2023-07-09T13:26:57;4.70;;;3.10;;
75512;SDS011;64090;49.770;18.760;2023-07-09T13:30:01;4.50;;;3.50;;
75512;SDS011;64090;49.770;18.760;2023-07-09T13:33:07;4.90;;;3.30;;
75512;SDS011;64090;49.770;18.760;2023-07-09T13:36:12;3.60;;;2.70;;
75512;SDS011;64090;49.770;18.760;2023-07-09T13:39:15;3.80;;;3.00;;
75512;SDS011;64090;49.770;18.760;2023-07-09T13:42:19;4.00;;;3.40;;
75512;SDS011;64090;49.770;18.760;2023-07-09T13:45:23;5.70;;;3.40;;
75512;SDS011;64090;49.770;18.760;2023-07-09T13:48:27;4.50;;;3.20;;
75512;SDS011;64090;49.770;18.760;2023-07-09T13:51:31;4.10;;;3.10;;
75512;SDS011;64090;49.770;18.760;2023-07-09T13:54:35;4.40;;;3.00;;
75512;SDS011;64090;49.770;18.760;2023-07-09T13:57:38;3.50;;;2.50;;
75512;SDS011;64090;49.770;18.760;2023-07-09T14:00:42;4.40;;;2.50;;
75512;SDS011;64090;49.770;18.760;2023-07-09T14:03:46;4.00;;;3.40;;
75512;SDS011;64090;49.770;18.760;2023-07-09T14:06:49;4.70;;;3.40;;
75512;SDS011;64090;49.770;18.760;2023-07-09T14:09:52;3.40;;;2.50;;
75512;SDS011;64090;49.770;18.760;2023-07-09T14:12:54;3.90;;;2.90;;
75512;SDS011;64090;49.770;18.760;2023-07-09T14:15:59;3.40;;;2.70;;
75512;SDS011;64090;49.770;18.760;2023-07-09T14:19:02;4.00;;;3.00;;
75512;SDS011;64090;49.770;18.760;2023-07-09T14:25:28;3.90;;;2.90;;
75512;SDS011;64090;49.770;18.760;2023-07-09T14:28:31;3.80;;;3.30;;
75512;SDS011;64090;49.770;18.760;2023-07-09T14:31:34;4.00;;;3.00;;
75512;SDS011;64090;49.770;18.760;2023-07-09T14:34:38;4.40;;;3.10;;
75512;SDS011;64090;49.770;18.760;2023-07-09T14:37:42;4.60;;;3.20;;
75512;SDS011;64090;49.770;18.760;2023-07-09T14:40:47;3.90;;;3.10;;
75512;SDS011;64090;49.770;18.760;2023-07-09T14:43:57;4.10;;;2.90;;
75512;SDS011;64090;49.770;18.760;2023-07-09T14:47:01;4.00;;;3.20;;
75512;SDS011;64090;49.770;18.760;2023-07-09T14:50:05;4.30;;;3.10;;
75512;SDS011;64090;49.770;18.760;2023-07-09T14:53:22;3.60;;;2.70;;
75512;SDS011;64090;49.770;18.760;2023-07-09T14:56:29;3.80;;;3.10;;
75512;SDS011;64090;49.770;18.760;2023-07-09T14:59:32;4.40;;;3.40;;
75512;SDS011;64090;49.770;18.760;2023-07-09T15:02:36;4.10;;;3.10;;
75512;SDS011;64090;49.770;18.760;2023-07-09T15:05:42;4.20;;;3.30;;
75512;SDS011;64090;49.770;18.760;2023-07-09T15:08:45;3.40;;;3.00;;
75512;SDS011;64090;49.770;18.760;2023-07-09T15:11:54;4.10;;;3.00;;
75512;SDS011;64090;49.770;18.760;2023-07-09T15:15:01;5.20;;;3.50;;
75512;SDS011;64090;49.770;18.760;2023-07-09T15:18:15;4.60;;;3.10;;
75512;SDS011;64090;49.770;18.760;2023-07-09T15:21:20;4.20;;;3.40;;
75512;SDS011;64090;49.770;18.760;2023-07-09T15:24:34;4.50;;;3.50;;
75512;SDS011;64090;49.770;18.760;2023-07-09T15:27:38;5.60;;;3.40;;
75512;SDS011;64090;49.770;18.760;2023-07-09T15:30:42;4.40;;;3.30;;
75512;SDS011;64090;49.770;18.760;2023-07-09T15:33:45;3.90;;;3.20;;
75512;SDS011;64090;49.770;18.760;2023-07-09T15:36:49;3.50;;;3.00;;
75512;SDS011;64090;49.770;18.760;2023-07-09T15:39:54;3.90;;;3.40;;
75512;SDS011;64090;49.770;18.760;2023-07-09T15:42:58;4.10;;;3.50;;
75512;SDS011;64090;49.770;18.760;2023-07-09T15:46:05;5.60;;;3.70;;
75512;SDS011;64090;49.770;18.760;2023-07-09T15:49:10;5.60;;;3.80;;
75512;SDS011;64090;49.770;18.760;2023-07-09T15:52:15;4.50;;;3.60;;
75512;SDS011;64090;49.770;18.760;2023-07-09T15:55:21;4.70;;;3.60;;
75512;SDS011;64090;49.770;18.760;2023-07-09T15:58:27;4.10;;;3.40;;
75512;SDS011;64090;49.770;18.760;2023-07-09T16:01:43;4.20;;;3.00;;
75512;SDS011;64090;49.770;18.760;2023-07-09T16:04:46;4.50;;;3.50;;
75512;SDS011;64090;49.770;18.760;2023-07-09T16:07:49;3.90;;;2.90;;
75512;SDS011;64090;49.770;18.760;2023-07-09T16:10:53;3.80;;;3.00;;
75512;SDS011;64090;49.770;18.760;2023-07-09T16:13:56;5.80;;;3.10;;
75512;SDS011;64090;49.770;18.760;2023-07-09T16:17:00;5.50;;;3.50;;
75512;SDS011;64090;49.770;18.760;2023-07-09T16:20:04;4.20;;;3.00;;
75512;SDS011;64090;49.770;18.760;2023-07-09T16:23:12;4.70;;;3.60;;
75512;SDS011;64090;49.770;18.760;2023-07-09T16:26:19;6.20;;;4.10;;
75512;SDS011;64090;49.770;18.760;2023-07-09T16:29:28;3.90;;;3.50;;
75512;SDS011;64090;49.770;18.760;2023-07-09T16:32:32;3.90;;;3.50;;
75512;SDS011;64090;49.770;18.760;2023-07-09T16:35:35;4.30;;;3.50;;
75512;SDS011;64090;49.770;18.760;2023-07-09T16:38:38;5.50;;;3.40;;
75512;SDS011;64090;49.770;18.760;2023-07-09T16:41:41;4.20;;;3.80;;
75512;SDS011;64090;49.770;18.760;2023-07-09T16:44:45;4.40;;;3.60;;
75512;SDS011;64090;49.770;18.760;2023-07-09T16:47:48;4.40;;;3.50;;
75512;SDS011;64090;49.770;18.760;2023-07-09T16:50:54;4.50;;;3.90;;
75512;SDS011;64090;49.770;18.760;2023-07-09T16:53:57;4.70;;;3.30;;
75512;SDS011;64090;49.770;18.760;2023-07-09T16:57:10;4.90;;;3.60;;
75512;SDS011;64090;49.770;18.760;2023-07-09T17:00:27;4.00;;;3.40;;
75512;SDS011;64090;49.770;18.760;2023-07-09T17:03:32;5.70;;;3.20;;
75512;SDS011;64090;49.770;18.760;2023-07-09T17:06:36;4.70;;;3.30;;
75512;SDS011;64090;49.770;18.760;2023-07-09T17:09:39;4.70;;;3.50;;
75512;SDS011;64090;49.770;18.760;2023-07-09T17:12:42;4.40;;;3.70;;
75512;SDS011;64090;49.770;18.760;2023-07-09T17:15:46;4.50;;;3.60;;
75512;SDS011;64090;49.770;18.760;2023-07-09T17:18:48;4.00;;;3.40;;
75512;SDS011;64090;49.770;18.760;2023-07-09T17:21:51;4.20;;;3.60;;
75512;SDS011;64090;49.770;18.760;2023-07-09T17:24:57;5.30;;;3.40;;
75512;SDS011;64090;49.770;18.760;2023-07-09T17:28:01;4.20;;;3.60;;
75512;SDS011;64090;49.770;18.760;2023-07-09T17:31:14;4.80;;;3.30;;
75512;SDS011;64090;49.770;18.760;2023-07-09T17:34:17;5.50;;;3.50;;
75512;SDS011;64090;49.770;18.760;2023-07-09T17:37:20;5.20;;;3.80;;
75512;SDS011;64090;49.770;18.760;2023-07-09T17:40:25;4.70;;;4.20;;
75512;SDS011;64090;49.770;18.760;2023-07-09T17:43:33;4.80;;;3.40;;
75512;SDS011;64090;49.770;18.760;2023-07-09T17:46:36;5.80;;;4.10;;
75512;SDS011;64090;49.770;18.760;2023-07-09T17:49:39;6.20;;;4.50;;
75512;SDS011;64090;49.770;18.760;2023-07-09T17:52:42;5.80;;;4.10;;
75512;SDS011;64090;49.770;18.760;2023-07-09T17:55:45;5.40;;;4.10;;
75512;SDS011;64090;49.770;18.760;2023-07-09T17:58:49;4.90;;;4.40;;
75512;SDS011;64090;49.770;18.760;2023-07-09T18:02:10;5.20;;;4.70;;
75512;SDS011;64090;49.770;18.760;2023-07-09T18:05:19;6.40;;;4.70;;
75512;SDS011;64090;49.770;18.760;2023-07-09T18:08:28;5.60;;;4.30;;
75512;SDS011;64090;49.770;18.760;2023-07-09T18:11:31;6.00;;;4.40;;
75512;SDS011;64090;49.770;18.760;2023-07-09T18:14:41;5.10;;;4.50;;
75512;SDS011;64090;49.770;18.760;2023-07-09T18:17:46;5.10;;;4.20;;
75512;SDS011;64090;49.770;18.760;2023-07-09T18:20:50;5.00;;;4.20;;
75512;SDS011;64090;49.770;18.760;2023-07-09T18:23:53;5.40;;;4.30;;
75512;SDS011;64090;49.770;18.760;2023-07-09T18:26:56;6.40;;;5.20;;
75512;SDS011;64090;49.770;18.760;2023-07-09T18:29:59;5.80;;;5.00;;
75512;SDS011;64090;49.770;18.760;2023-07-09T18:33:03;6.10;;;5.20;;
75512;SDS011;64090;49.770;18.760;2023-07-09T18:36:08;6.80;;;5.00;;
75512;SDS011;64090;49.770;18.760;2023-07-09T18:39:11;5.50;;;4.30;;
75512;SDS011;64090;49.770;18.760;2023-07-09T18:42:14;7.00;;;4.90;;
75512;SDS011;64090;49.770;18.760;2023-07-09T18:45:21;6.60;;;4.40;;
75512;SDS011;64090;49.770;18.760;2023-07-09T18:48:26;6.50;;;4.50;;